createdAt,value
2019-04-11T00:02:36.454Z,39.00
2019-04-11T00:05:14.730Z,39.00
2019-04-11T00:07:52.241Z,38.90
2019-04-11T00:10:29.477Z,39.00
2019-04-11T00:13:17.277Z,39.00
2019-04-11T00:15:44.638Z,38.90
2019-04-11T00:18:21.426Z,38.90
2019-04-11T00:20:58.251Z,38.90
2019-04-11T00:23:34.414Z,38.90
2019-04-11T00:26:12.114Z,38.90
2019-04-11T00:28:48.534Z,38.90
2019-04-11T00:31:25.220Z,38.90
2019-04-11T00:34:02.510Z,38.90
2019-04-11T00:36:38.835Z,38.90
2019-04-11T00:39:15.239Z,38.90
2019-04-11T00:41:52.382Z,38.80
2019-04-11T00:44:28.470Z,38.80
2019-04-11T00:47:04.965Z,38.90
2019-04-11T00:49:40.984Z,38.70
2019-04-11T00:52:17.317Z,38.70
2019-04-11T00:54:53.924Z,38.70
2019-04-11T00:57:30.710Z,38.70
2019-04-11T01:00:08.947Z,38.70
2019-04-11T01:02:45.569Z,38.70
2019-04-11T01:05:22.130Z,38.60
2019-04-11T01:07:59.671Z,38.40
2019-04-11T01:10:36.224Z,39.00
2019-04-11T01:13:14.089Z,38.60
2019-04-11T01:15:56.838Z,38.50
2019-04-11T01:18:34.005Z,38.50
2019-04-11T01:21:10.354Z,38.40
2019-04-11T01:23:47.060Z,38.50
2019-04-11T01:26:23.793Z,38.40
2019-04-11T01:29:00.910Z,38.40
2019-04-11T01:31:38.141Z,38.30
2019-04-11T01:34:14.828Z,38.30
2019-04-11T01:36:51.479Z,38.30
2019-04-11T01:39:41.224Z,38.30
2019-04-11T01:42:17.775Z,38.20
2019-04-11T01:44:54.825Z,38.20
2019-04-11T01:47:40.218Z,38.30
2019-04-11T01:50:20.944Z,38.40
2019-04-11T01:52:57.061Z,38.30
2019-04-11T01:55:34.765Z,38.10
2019-04-11T01:58:11.648Z,38.00
2019-04-11T02:01:06.360Z,38.00
2019-04-11T02:03:49.787Z,38.00
2019-04-11T02:06:26.387Z,38.00
2019-04-11T02:09:05.976Z,37.90
2019-04-11T02:11:43.170Z,37.90
2019-04-11T02:14:20.969Z,37.90
2019-04-11T02:16:57.355Z,37.90
2019-04-11T02:19:34.460Z,37.90
2019-04-11T02:22:29.065Z,37.80
2019-04-11T02:25:36.651Z,37.90
2019-04-11T02:28:16.894Z,37.80
2019-04-11T02:30:55.695Z,37.90
2019-04-11T02:33:32.922Z,37.70
2019-04-11T02:36:10.037Z,37.70
2019-04-11T02:38:53.502Z,37.70
2019-04-11T02:41:27.385Z,38.20
2019-04-11T02:44:07.214Z,37.70
2019-04-11T02:46:53.263Z,37.60
2019-04-11T02:49:21.552Z,37.60
2019-04-11T02:52:00.851Z,37.60
2019-04-11T02:54:38.898Z,37.50
2019-04-11T02:57:16.278Z,37.60
2019-04-11T02:59:53.849Z,37.50
2019-04-11T03:02:32.688Z,37.40
2019-04-11T03:05:12.061Z,37.50
2019-04-11T03:07:49.806Z,37.50
2019-04-11T03:10:27.156Z,37.40
2019-04-11T03:13:05.040Z,37.40
2019-04-11T03:15:57.430Z,37.40
2019-04-11T03:18:43.729Z,37.40
2019-04-11T03:21:05.696Z,37.30
2019-04-11T03:23:37.406Z,37.30
2019-04-11T03:26:14.519Z,37.40
2019-04-11T03:28:55.564Z,37.20
2019-04-11T03:37:21.088Z,37.30
2019-04-11T03:39:48.869Z,37.20
2019-04-11T03:42:17.295Z,37.20
2019-04-11T03:44:47.239Z,37.20
2019-04-11T03:47:34.777Z,37.20
2019-04-11T03:50:06.094Z,37.10
2019-04-11T03:52:37.603Z,37.10
2019-04-11T03:55:15.217Z,37.10
2019-04-11T03:57:55.576Z,37.10
2019-04-11T04:00:35.548Z,37.10
2019-04-11T04:03:09.232Z,37.10
2019-04-11T04:05:45.998Z,37.10
2019-04-11T04:08:23.005Z,37.10
2019-04-11T04:11:30.437Z,37.10
2019-04-11T04:14:39.229Z,37.00
2019-04-11T04:17:43.358Z,37.00
2019-04-11T04:20:49.111Z,37.00
2019-04-11T04:23:31.447Z,37.00
2019-04-11T04:26:10.599Z,36.90
2019-04-11T04:28:47.760Z,36.90
2019-04-11T04:31:24.425Z,36.90
2019-04-11T04:34:01.955Z,37.00
2019-04-11T04:36:40.186Z,36.80
2019-04-11T04:39:17.433Z,36.80
2019-04-11T04:42:01.233Z,36.90
2019-04-11T04:44:31.692Z,37.20
2019-04-11T04:47:19.903Z,36.80
2019-04-11T04:49:46.005Z,36.80
2019-04-11T04:52:25.271Z,36.80
2019-04-11T04:55:03.927Z,36.80
2019-04-11T04:57:40.616Z,36.70
2019-04-11T05:00:18.807Z,36.70
2019-04-11T05:02:56.957Z,36.70
2019-04-11T05:05:33.807Z,36.70
2019-04-11T05:08:11.435Z,36.70
2019-04-11T05:10:49.184Z,36.70
2019-04-11T05:13:27.797Z,36.70
2019-04-11T05:16:16.372Z,36.90
2019-04-11T05:18:42.488Z,36.90
2019-04-11T05:21:19.121Z,37.10
2019-04-11T05:23:56.653Z,37.40
2019-04-11T05:26:33.351Z,37.50
2019-04-11T05:29:09.750Z,37.50
2019-04-11T05:31:46.975Z,37.60
2019-04-11T05:34:23.833Z,37.70
2019-04-11T05:37:01.813Z,37.50
2019-04-11T05:39:38.109Z,37.40
2019-04-11T05:42:17.793Z,42.60
2019-04-11T05:44:53.008Z,45.40
2019-04-11T05:47:29.726Z,44.20
2019-04-11T05:50:24.332Z,43.50
2019-04-11T05:53:03.792Z,43.30
2019-04-11T05:55:45.435Z,43.00
2019-04-11T05:58:20.970Z,42.90
2019-04-11T06:01:10.047Z,42.50
2019-04-11T06:03:48.782Z,42.70
2019-04-11T06:06:36.887Z,42.20
2019-04-11T06:09:16.251Z,40.50
2019-04-11T06:12:11.735Z,40.10
2019-04-11T06:15:20.011Z,36.00
2019-04-11T06:17:56.616Z,35.60
2019-04-11T06:20:41.285Z,35.90
2019-04-11T06:23:37.459Z,36.30
2019-04-11T06:26:32.416Z,36.80
2019-04-11T06:29:21.138Z,36.90
2019-04-11T06:32:16.839Z,37.20
2019-04-11T06:34:59.722Z,37.80
2019-04-11T06:37:59.610Z,38.20
2019-04-11T06:40:44.093Z,38.30
2019-04-11T06:43:34.128Z,38.70
2019-04-11T06:46:33.399Z,38.80
2019-04-11T06:49:18.441Z,38.80
2019-04-11T06:51:58.291Z,38.40
2019-04-11T06:54:53.898Z,38.60
2019-04-11T06:57:32.014Z,38.40
2019-04-11T07:00:09.171Z,38.80
2019-04-11T07:02:51.133Z,38.70
2019-04-11T07:05:30.894Z,38.80
2019-04-11T07:08:07.797Z,38.30
2019-04-11T07:10:49.565Z,38.10
2019-04-11T07:13:48.415Z,38.10
2019-04-11T07:16:25.462Z,38.00
2019-04-11T07:19:27.169Z,37.90
2019-04-11T07:22:23.125Z,37.80
2019-04-11T07:25:22.285Z,37.60
2019-04-11T07:28:05.666Z,37.50
2019-04-11T07:31:00.352Z,37.40
2019-04-11T07:33:54.152Z,37.40
2019-04-11T07:36:48.868Z,37.50
2019-04-11T07:39:53.890Z,37.30
2019-04-11T07:42:49.629Z,37.20
2019-04-11T07:45:30.522Z,37.40
2019-04-11T07:48:17.290Z,37.40
2019-04-11T07:50:55.413Z,37.30
2019-04-11T07:53:33.656Z,37.40
2019-04-11T07:56:10.071Z,37.40
2019-04-11T07:58:51.133Z,37.40
2019-04-11T08:01:54.958Z,37.40
2019-04-11T08:04:49.563Z,37.50
2019-04-11T08:07:44.610Z,37.30
2019-04-11T08:10:29.378Z,37.20
2019-04-11T08:13:12.360Z,37.00
2019-04-11T08:16:06.455Z,36.90
2019-04-11T08:19:13.184Z,36.80
2019-04-11T08:22:08.488Z,36.70
2019-04-11T08:24:56.576Z,36.70
2019-04-11T08:27:49.815Z,37.20
2019-04-11T08:30:15.539Z,36.50
2019-04-11T08:32:58.133Z,36.40
2019-04-11T08:35:55.312Z,36.20
2019-04-11T08:38:34.503Z,36.20
2019-04-11T08:41:33.876Z,36.10
2019-04-11T08:44:15.455Z,36.00
2019-04-11T08:46:56.294Z,36.00
2019-04-11T08:49:41.857Z,35.80
2019-04-11T08:52:46.550Z,35.70
2019-04-11T08:55:46.315Z,35.70
2019-04-11T08:58:20.576Z,35.50
2019-04-11T09:01:00.674Z,35.50
2019-04-11T09:04:02.164Z,35.40
2019-04-11T09:06:37.182Z,35.40
2019-04-11T09:09:31.547Z,35.30
2019-04-11T09:12:12.070Z,35.20
2019-04-11T09:15:06.553Z,35.60
2019-04-11T09:18:01.055Z,35.10
2019-04-11T09:20:55.991Z,35.00
2019-04-11T09:23:33.477Z,35.00
2019-04-11T09:26:27.715Z,34.90
2019-04-11T09:29:06.793Z,34.90
2019-04-11T09:32:02.244Z,34.80
2019-04-11T09:34:55.749Z,34.80
2019-04-11T09:37:35.985Z,34.70
2019-04-11T09:40:36.276Z,34.70
2019-04-11T09:43:18.490Z,34.60
2019-04-11T09:46:30.446Z,34.60
2019-04-11T09:49:23.776Z,34.50
2019-04-11T09:52:08.794Z,34.50
2019-04-11T09:55:04.502Z,34.40
2019-04-11T09:57:44.443Z,34.30
2019-04-11T10:00:36.688Z,34.30
2019-04-11T10:03:25.654Z,34.20
2019-04-11T10:06:36.741Z,34.20
2019-04-11T10:09:13.528Z,34.20
2019-04-11T10:12:08.585Z,34.10
2019-04-11T10:14:48.089Z,34.20
2019-04-11T10:17:43.806Z,34.10
2019-04-11T10:20:20.828Z,34.00
2019-04-11T10:23:20.755Z,34.00
2019-04-11T10:26:01.374Z,33.90
2019-04-11T10:29:14.883Z,34.00
2019-04-11T10:31:52.829Z,33.90
2019-04-11T10:34:47.927Z,33.80
2019-04-11T10:37:24.097Z,33.60
2019-04-11T10:40:21.129Z,33.70
2019-04-11T10:42:58.080Z,33.80
2019-04-11T10:45:55.210Z,33.50
2019-04-11T10:48:45.214Z,33.50
2019-04-11T10:51:30.152Z,33.40
2019-04-11T10:54:08.484Z,33.50
2019-04-11T10:57:05.523Z,33.30
2019-04-11T10:59:43.036Z,34.00
2019-04-11T11:02:45.282Z,33.20
2019-04-11T11:05:22.410Z,33.10
2019-04-11T11:08:04.759Z,33.00
2019-04-11T11:10:41.894Z,33.00
2019-04-11T11:13:43.331Z,33.00
2019-04-11T11:16:22.741Z,32.90
2019-04-11T11:19:40.400Z,32.90
2019-04-11T11:22:08.334Z,32.90
2019-04-11T11:25:13.583Z,32.80
2019-04-11T11:27:48.460Z,32.80
2019-04-11T11:30:47.382Z,32.70
2019-04-11T11:33:27.527Z,32.70
2019-04-11T11:36:32.139Z,32.50
2019-04-11T11:39:21.029Z,32.50
2019-04-11T11:42:15.249Z,32.40
2019-04-11T11:44:53.685Z,32.40
2019-04-11T11:47:55.393Z,32.30
2019-04-11T11:50:33.508Z,32.30
2019-04-11T11:53:22.698Z,32.30
2019-04-11T11:56:00.254Z,32.30
2019-04-11T11:59:15.508Z,32.20
2019-04-11T12:02:04.933Z,32.20
2019-04-11T12:05:14.725Z,32.10
2019-04-11T12:08:02.241Z,32.00
2019-04-11T12:10:51.440Z,32.10
2019-04-11T12:13:40.509Z,32.00
2019-04-11T12:16:34.830Z,32.00
2019-04-11T12:19:22.822Z,32.10
2019-04-11T12:21:59.967Z,32.10
2019-04-11T12:24:41.171Z,32.00
2019-04-11T12:27:28.945Z,32.00
2019-04-11T12:30:33.844Z,32.00
2019-04-11T12:33:44.006Z,32.00
2019-04-11T12:36:24.042Z,32.10
2019-04-11T12:39:25.514Z,32.20
2019-04-11T12:42:09.209Z,32.30
2019-04-11T12:45:02.792Z,32.20
2019-04-11T12:47:45.132Z,32.00
2019-04-11T12:50:39.821Z,32.00
2019-04-11T12:53:21.104Z,32.10
2019-04-11T12:56:14.873Z,32.10
2019-04-11T12:59:10.370Z,32.10
2019-04-11T13:02:05.132Z,32.10
2019-04-11T13:04:45.195Z,32.00
2019-04-11T13:07:59.037Z,32.10
2019-04-11T13:10:39.052Z,32.20
2019-04-11T13:13:35.327Z,32.20
2019-04-11T13:16:13.031Z,32.10
2019-04-11T13:19:14.244Z,32.10
2019-04-11T13:22:06.239Z,32.10
2019-04-11T13:25:04.408Z,32.10
2019-04-11T13:27:45.206Z,32.10
2019-04-11T13:30:43.628Z,32.20
2019-04-11T13:33:22.909Z,32.10
2019-04-11T13:36:18.319Z,32.10
2019-04-11T13:38:54.361Z,32.20
2019-04-11T13:42:04.716Z,32.10
2019-04-11T13:44:42.319Z,32.20
2019-04-11T13:47:43.653Z,33.00
2019-04-11T13:50:20.544Z,32.30
2019-04-11T13:53:22.291Z,32.30
2019-04-11T13:55:59.703Z,32.30
2019-04-11T13:59:13.200Z,32.40
2019-04-11T14:01:50.885Z,32.50
2019-04-11T14:04:32.360Z,32.50
2019-04-11T14:07:11.082Z,32.40
2019-04-11T14:09:49.628Z,32.40
2019-04-11T14:12:26.400Z,32.50
2019-04-11T14:15:08.740Z,32.50
2019-04-11T14:17:58.898Z,32.60
2019-04-11T14:20:41.779Z,32.50
2019-04-11T14:23:35.844Z,32.60
2019-04-11T14:26:30.495Z,32.80
2019-04-11T14:29:24.589Z,32.60
2019-04-11T14:32:11.231Z,32.70
2019-04-11T14:35:05.877Z,32.60
2019-04-11T14:37:48.393Z,32.70
2019-04-11T14:40:47.247Z,32.60
2019-04-11T14:43:32.099Z,33.00
2019-04-11T14:46:27.595Z,32.70
2019-04-11T14:49:10.493Z,32.80
2019-04-11T14:52:19.850Z,32.90
2019-04-11T14:55:00.023Z,32.80
2019-04-11T14:57:55.136Z,33.00
2019-04-11T15:00:33.989Z,32.90
2019-04-11T15:03:28.288Z,33.00
2019-04-11T15:06:23.358Z,33.10
2019-04-11T15:09:34.688Z,33.10
2019-04-11T15:12:17.566Z,33.20
2019-04-11T15:15:23.618Z,33.00
2019-04-11T15:18:02.375Z,33.20
2019-04-11T15:20:54.994Z,33.20
2019-04-11T15:23:37.715Z,33.20
2019-04-11T15:26:30.729Z,33.10
2019-04-11T15:29:13.555Z,33.10
2019-04-11T15:32:14.137Z,33.10
2019-04-11T15:35:03.222Z,33.20
2019-04-11T15:38:01.648Z,33.30
2019-04-11T15:40:40.628Z,33.20
2019-04-11T15:43:42.074Z,33.30
2019-04-11T15:46:23.054Z,33.20
2019-04-11T15:49:38.363Z,33.30
2019-04-11T15:52:18.048Z,33.50
2019-04-11T15:55:13.516Z,33.50
2019-04-11T15:57:55.509Z,33.60
2019-04-11T16:00:55.923Z,33.60
2019-04-11T16:03:31.872Z,33.40
2019-04-11T16:06:39.925Z,33.60
2019-04-11T16:09:19.406Z,33.50
2019-04-11T16:12:03.506Z,33.50
2019-04-11T16:14:40.443Z,33.50
2019-04-11T16:17:35.751Z,33.50
2019-04-11T16:20:18.172Z,33.50
2019-04-11T16:23:14.995Z,33.70
2019-04-11T16:25:53.006Z,34.00
2019-04-11T16:28:59.131Z,33.90
2019-04-11T16:31:40.157Z,33.90
2019-04-11T16:34:32.300Z,33.90
2019-04-11T16:37:09.462Z,33.90
2019-04-11T16:40:03.525Z,34.00
2019-04-11T16:42:48.625Z,34.20
2019-04-11T16:45:32.732Z,34.10
2019-04-11T16:48:09.211Z,34.00
2019-04-11T16:50:46.049Z,34.00
2019-04-11T16:53:21.999Z,34.00
2019-04-11T16:55:59.214Z,34.00
2019-04-11T16:58:35.921Z,34.10
2019-04-11T17:01:12.132Z,34.10
2019-04-11T17:03:49.318Z,34.10
2019-04-11T17:06:55.496Z,34.20
2019-04-11T17:09:41.524Z,34.10
2019-04-11T17:12:18.553Z,34.30
2019-04-11T17:14:55.650Z,34.30
2019-04-11T17:17:33.316Z,34.30
2019-04-11T17:20:09.790Z,34.40
2019-04-11T17:22:46.695Z,34.50
2019-04-11T17:25:23.731Z,34.70
2019-04-11T17:28:00.916Z,34.60
2019-04-11T17:30:37.118Z,34.80
2019-04-11T17:33:13.737Z,34.90
2019-04-11T17:35:50.119Z,35.00
2019-04-11T17:38:26.535Z,35.80
2019-04-11T17:41:02.932Z,35.10
2019-04-11T17:43:42.073Z,35.10
2019-04-11T17:46:17.638Z,35.10
2019-04-11T17:48:54.037Z,35.10
2019-04-11T17:51:34.437Z,35.30
2019-04-11T17:54:08.780Z,35.30
2019-04-11T17:56:44.551Z,35.30
2019-04-11T17:59:20.737Z,35.40
2019-04-11T18:01:56.781Z,35.10
2019-04-11T18:04:33.206Z,35.00
2019-04-11T18:07:09.076Z,35.00
2019-04-11T18:09:45.369Z,35.00
2019-04-11T18:12:23.856Z,35.00
2019-04-11T18:15:02.333Z,35.10
2019-04-11T18:17:38.832Z,35.10
2019-04-11T18:20:15.772Z,35.20
2019-04-11T18:22:52.083Z,36.00
2019-04-11T18:25:28.169Z,35.20
2019-04-11T18:28:06.299Z,35.20
2019-04-11T18:30:44.027Z,35.10
2019-04-11T18:33:20.980Z,35.20
2019-04-11T18:36:01.745Z,35.30
2019-04-11T18:38:36.521Z,35.20
2019-04-11T18:41:13.714Z,35.40
2019-04-11T18:43:50.842Z,35.10
2019-04-11T18:46:27.626Z,35.30
2019-04-11T18:49:03.946Z,35.50
2019-04-11T18:51:40.091Z,35.60
2019-04-11T18:54:16.215Z,35.60
2019-04-11T18:56:54.137Z,35.60
2019-04-11T18:59:33.822Z,35.00
2019-04-11T19:02:09.829Z,35.40
2019-04-11T19:04:47.178Z,35.70
2019-04-11T19:07:27.917Z,36.00
2019-04-11T19:10:02.471Z,36.20
2019-04-11T19:12:39.205Z,35.90
2019-04-11T19:15:16.872Z,35.90
2019-04-11T19:18:05.643Z,35.90
2019-04-11T19:20:32.973Z,36.10
2019-04-11T19:23:08.872Z,36.20
2019-04-11T19:25:45.562Z,36.10
2019-04-11T19:28:25.217Z,36.20
2019-04-11T19:31:01.744Z,36.40
2019-04-11T19:33:40.069Z,36.30
2019-04-11T19:36:17.070Z,36.40
2019-04-11T19:38:53.614Z,36.30
2019-04-11T19:41:30.207Z,36.30
2019-04-11T19:44:06.705Z,36.30
2019-04-11T19:46:43.600Z,36.30
2019-04-11T19:49:20.363Z,36.40
2019-04-11T19:51:58.656Z,36.40
2019-04-11T19:54:35.226Z,36.40
2019-04-11T19:57:11.546Z,36.40
2019-04-11T19:59:47.933Z,36.40
2019-04-11T20:02:24.124Z,36.50
2019-04-11T20:05:00.400Z,36.50
2019-04-11T20:07:36.441Z,36.50
2019-04-11T20:10:13.331Z,36.50
2019-04-11T20:12:49.272Z,36.60
2019-04-11T20:15:36.484Z,36.60
2019-04-11T20:18:02.819Z,36.70
2019-04-11T20:20:39.697Z,37.50
2019-04-11T20:23:17.548Z,37.20
2019-04-11T20:25:54.064Z,37.20
2019-04-11T20:28:30.667Z,37.20
2019-04-11T20:31:07.097Z,37.20
2019-04-11T20:33:42.909Z,37.20
2019-04-11T20:36:20.045Z,37.20
2019-04-11T20:38:56.690Z,37.20
2019-04-11T20:41:33.446Z,37.10
2019-04-11T20:44:11.085Z,37.20
2019-04-11T20:46:48.481Z,37.10
2019-04-11T20:49:24.623Z,37.10
2019-04-11T20:52:01.825Z,37.10
2019-04-11T20:54:39.171Z,37.10
2019-04-11T20:57:25.225Z,37.10
2019-04-11T20:59:54.029Z,37.10
2019-04-11T21:02:30.155Z,37.20
2019-04-11T21:05:06.400Z,37.10
2019-04-11T21:07:43.770Z,37.20
2019-04-11T21:10:22.976Z,37.20
2019-04-11T21:12:59.510Z,37.20
2019-04-11T21:15:35.868Z,37.10
2019-04-11T21:18:12.073Z,37.10
2019-04-11T21:20:48.154Z,37.20
2019-04-11T21:23:29.290Z,37.20
2019-04-11T21:26:05.621Z,37.10
2019-04-11T21:28:42.273Z,37.20
2019-04-11T21:31:18.165Z,37.20
2019-04-11T21:33:55.771Z,37.10
2019-04-11T21:36:32.360Z,37.50
2019-04-11T21:39:09.189Z,37.50
2019-04-11T21:41:45.565Z,37.60
2019-04-11T21:44:22.458Z,37.40
2019-04-11T21:46:59.284Z,37.20
2019-04-11T21:49:37.652Z,37.10
2019-04-11T21:52:15.033Z,36.90
2019-04-11T21:54:52.036Z,36.90
2019-04-11T21:57:28.769Z,36.80
2019-04-11T22:00:12.921Z,36.70
2019-04-11T22:02:48.977Z,36.70
2019-04-11T22:05:28.880Z,37.40
2019-04-11T22:08:03.930Z,36.60
2019-04-11T22:10:41.117Z,36.60
2019-04-11T22:13:17.833Z,36.50
2019-04-11T22:15:54.202Z,36.40
2019-04-11T22:18:31.240Z,36.70
2019-04-11T22:21:07.377Z,36.70
2019-04-11T22:23:49.010Z,36.70
2019-04-11T22:26:22.147Z,36.60
2019-04-11T22:28:58.505Z,36.60
2019-04-11T22:31:35.352Z,36.50
2019-04-11T22:34:21.576Z,36.50
2019-04-11T22:37:00.006Z,36.40
2019-04-11T22:39:36.326Z,36.40
2019-04-11T22:42:13.027Z,36.40
2019-04-11T22:44:49.077Z,36.30
2019-04-11T22:47:25.754Z,36.20
2019-04-11T22:50:02.285Z,37.50
2019-04-11T22:52:42.245Z,37.40
2019-04-11T22:55:17.055Z,36.60
2019-04-11T22:57:54.286Z,36.00
2019-04-11T23:00:30.824Z,35.90
2019-04-11T23:03:16.922Z,35.60
2019-04-11T23:05:52.782Z,35.60
2019-04-11T23:08:29.588Z,35.40
2019-04-11T23:11:06.689Z,35.30
2019-04-11T23:13:46.361Z,35.40
2019-04-11T23:16:23.656Z,35.20
2019-04-11T23:19:00.071Z,35.00
2019-04-11T23:21:36.775Z,35.00
2019-04-11T23:24:13.687Z,34.90
2019-04-11T23:26:49.740Z,35.00
2019-04-11T23:29:26.340Z,35.00
2019-04-11T23:32:02.939Z,34.80
2019-04-11T23:34:40.215Z,34.80
2019-04-11T23:37:18.733Z,34.90
2019-04-11T23:39:55.409Z,35.00
2019-04-11T23:42:31.358Z,34.90
2019-04-11T23:45:08.132Z,34.90
2019-04-11T23:47:45.013Z,34.90
2019-04-11T23:50:24.842Z,34.90
2019-04-11T23:52:59.125Z,34.80
2019-04-11T23:55:35.816Z,34.70
2019-04-11T23:58:12.832Z,34.80
